Time;durP1;ratioP1;P1;durP2;ratioP2;P2;SDS_P1;SDS_P2;PMS_P1;PMS_P2;Temp;Humidity;BMP_temperature;BMP_pressure;BME280_temperature;BME280_humidity;BME280_pressure;Samples;Min_cycle;Max_cycle;Signal;HPM_P1;HPM_P2
2021/09/21 00:01:22;;;;;;;25.02;3.10;;;;;;;10.89;88.92;100449.41;1735789;82;20980;-51
2021/09/21 00:03:49;;;;;;;13.45;2.10;;;;;;;10.89;88.87;100446.81;1735814;82;20886;-53
2021/09/21 00:06:16;;;;;;;4.67;1.52;;;;;;;10.88;88.99;100447.70;1735887;82;20972;-55
2021/09/21 00:08:44;;;;;;;3.87;1.50;;;;;;;10.89;88.93;100453.29;1738475;81;21142;-52
2021/09/21 00:11:12;;;;;;;6.78;1.30;;;;;;;10.89;89.02;100449.41;1749709;82;20858;-54
2021/09/21 00:13:40;;;;;;;3.10;1.60;;;;;;;10.88;89.05;100449.00;1749804;82;21540;-55
2021/09/21 00:16:09;;;;;;;6.15;1.40;;;;;;;10.88;89.19;100451.59;1749832;82;21537;-54
2021/09/21 00:18:36;;;;;;;10.88;1.70;;;;;;;10.86;89.17;100450.77;1749845;82;21402;-53
2021/09/21 00:21:04;;;;;;;1.90;1.20;;;;;;;10.84;89.22;100448.65;1749758;82;21538;-53
2021/09/21 00:24:55;;;;;;;21.80;3.42;;;;;;;10.87;89.12;100446.00;1798436;79;22679;-53
2021/09/21 00:27:23;;;;;;;15.15;1.98;;;;;;;10.81;89.15;100446.13;1739167;81;20960;-54
2021/09/21 00:29:51;;;;;;;7.33;2.00;;;;;;;10.82;89.22;100445.23;1757939;81;21130;-54
2021/09/21 00:32:24;;;;;;;11.88;2.62;;;;;;;10.81;88.86;100447.84;1757987;81;20920;-51
2021/09/21 00:34:47;;;;;;;28.05;2.90;;;;;;;10.78;88.82;100442.30;1757422;81;20924;-53
2021/09/21 00:37:14;;;;;;;25.80;2.52;;;;;;;10.77;88.74;100445.78;1758087;81;21058;-52
2021/09/21 00:39:42;;;;;;;17.48;2.65;;;;;;;10.76;88.82;100439.73;1758410;81;20921;-53
2021/09/21 00:42:09;;;;;;;9.50;1.77;;;;;;;10.77;89.06;100434.13;1758067;81;21166;-55
2021/09/21 00:44:36;;;;;;;5.87;1.32;;;;;;;10.76;89.06;100436.30;1758265;81;20968;-53
2021/09/21 00:47:04;;;;;;;5.45;1.10;;;;;;;10.74;88.96;100433.73;1757935;81;21007;-55
2021/09/21 00:49:32;;;;;;;20.90;2.27;;;;;;;10.73;89.02;100436.34;1758191;81;21481;-52
2021/09/21 00:52:01;;;;;;;27.98;2.72;;;;;;;10.72;89.19;100436.80;1739107;81;20979;-55
2021/09/21 00:54:27;;;;;;;31.25;3.17;;;;;;;10.72;89.36;100428.16;1724915;83;21215;-56
2021/09/21 00:56:55;;;;;;;36.83;3.37;;;;;;;10.69;89.36;100433.41;1724515;83;20966;-52
2021/09/21 00:59:23;;;;;;;16.37;2.77;;;;;;;10.67;89.43;100428.70;1724469;83;20985;-56
2021/09/21 01:01:51;;;;;;;15.10;2.10;;;;;;;10.66;89.49;100423.98;1724480;83;20960;-55
2021/09/21 01:04:17;;;;;;;16.90;2.62;;;;;;;10.66;89.42;100426.99;1723771;83;21038;-53
2021/09/21 01:06:44;;;;;;;18.75;3.47;;;;;;;10.63;89.47;100426.17;1698460;84;21146;-54
2021/09/21 01:09:17;;;;;;;17.30;2.70;;;;;;;10.62;89.63;100431.39;1698273;84;20936;-52
2021/09/21 01:11:53;;;;;;;14.25;3.10;;;;;;;10.60;89.77;100433.13;1715854;83;20952;-55
2021/09/21 01:14:20;;;;;;;22.80;2.60;;;;;;;10.58;89.87;100430.59;1709123;84;20979;-54
2021/09/21 01:16:50;;;;;;;39.05;4.00;;;;;;;10.57;89.87;100430.17;1708952;84;20967;-53
2021/09/21 01:19:18;;;;;;;15.13;3.25;;;;;;;10.56;90.07;100423.72;1708954;84;21069;-53
2021/09/21 01:21:47;;;;;;;18.92;3.10;;;;;;;10.55;90.27;100425.47;1681061;84;20999;-55
2021/09/21 01:24:16;;;;;;;14.98;2.52;;;;;;;10.54;90.20;100419.88;1701139;83;20968;-55
2021/09/21 01:26:42;;;;;;;21.48;3.20;;;;;;;10.53;90.09;100424.66;1696376;84;21004;-54
2021/09/21 01:29:09;;;;;;;19.27;3.12;;;;;;;10.52;90.22;100425.96;1696341;84;20937;-54
2021/09/21 01:31:36;;;;;;;15.30;2.87;;;;;;;10.50;90.56;100422.12;1696644;83;21135;-56
2021/09/21 01:34:03;;;;;;;38.73;3.62;;;;;;;10.49;90.58;100421.72;1696310;83;21540;-51
2021/09/21 01:36:30;;;;;;;14.40;3.15;;;;;;;10.48;90.63;100418.69;1695892;83;21000;-51
2021/09/21 01:38:57;;;;;;;27.90;3.62;;;;;;;10.46;90.78;100415.27;1695844;83;20996;-54
2021/09/21 01:41:24;;;;;;;19.55;3.10;;;;;;;10.45;90.80;100415.73;1696119;84;20949;-54
2021/09/21 01:43:50;;;;;;;20.15;3.80;;;;;;;10.43;91.01;100411.03;1696180;84;21123;-54
2021/09/21 01:46:22;;;;;;;13.72;3.17;;;;;;;10.42;90.87;100413.63;1695925;84;20933;-56
2021/09/21 01:48:49;;;;;;;29.12;4.60;;;;;;;10.41;90.94;100413.22;1695957;84;20952;-56
2021/09/21 01:51:31;;;;;;;17.15;2.80;;;;;;;10.40;91.12;100406.30;1695776;84;21521;-55
2021/09/21 01:59:28;;;;;;;13.98;3.45;;;;;;;10.37;91.29;100415.42;1695942;84;20941;-56
2021/09/21 02:01:56;;;;;;;20.90;3.40;;;;;;;10.35;91.47;100411.13;1695954;83;20960;-53
2021/09/21 02:04:23;;;;;;;4.45;2.50;;;;;;;10.34;91.45;100414.59;1695807;84;21012;-53
2021/09/21 02:06:51;;;;;;;11.28;2.20;;;;;;;10.33;91.52;100413.31;1695965;84;20968;-53
2021/09/21 02:09:20;;;;;;;13.45;3.00;;;;;;;10.32;91.46;100411.19;1695920;84;21557;-55
2021/09/21 02:11:46;;;;;;;19.35;2.60;;;;;;;10.31;91.53;100407.33;1695869;84;21589;-55
2021/09/21 02:14:15;;;;;;;28.50;3.25;;;;;;;10.31;91.43;100411.20;1695882;83;21507;-54
2021/09/21 02:16:46;;;;;;;18.85;3.15;;;;;;;10.29;91.51;100411.25;1695696;84;20966;-55
2021/09/21 02:19:12;;;;;;;12.35;2.55;;;;;;;10.28;91.76;100410.84;1696113;84;20999;-55
2021/09/21 02:21:40;;;;;;;18.12;3.37;;;;;;;10.28;91.51;100408.67;1695811;84;20913;-52
2021/09/21 02:24:08;;;;;;;15.53;2.80;;;;;;;10.26;91.48;100412.60;1697821;83;20948;-52
2021/09/21 02:26:34;;;;;;;31.95;2.80;;;;;;;10.24;91.37;100401.43;1711039;83;20970;-55
2021/09/21 02:29:01;;;;;;;11.90;2.12;;;;;;;10.23;91.45;100404.03;1682619;85;21539;-54
2021/09/21 02:31:29;;;;;;;17.73;2.52;;;;;;;10.23;91.57;100405.33;1701433;84;21403;-55
2021/09/21 02:33:57;;;;;;;35.48;3.55;;;;;;;10.22;91.49;100409.63;1711127;83;20936;-53
2021/09/21 02:36:23;;;;;;;27.07;2.85;;;;;;;10.22;91.51;100404.45;1701620;84;20949;-54
2021/09/21 02:38:51;;;;;;;10.05;2.02;;;;;;;10.20;91.56;100408.38;1711103;83;21004;-52
2021/09/21 02:41:18;;;;;;;10.80;1.87;;;;;;;10.18;91.73;100403.67;1701547;84;20917;-52
2021/09/21 02:43:44;;;;;;;16.10;2.05;;;;;;;10.18;91.73;100412.73;1711072;83;20983;-53
2021/09/21 02:46:11;;;;;;;10.60;1.47;;;;;;;10.19;91.63;100404.52;1701491;84;21904;-57
2021/09/21 02:48:38;;;;;;;10.88;1.80;;;;;;;10.17;91.47;100414.03;1710953;82;21030;-55
2021/09/21 02:51:04;;;;;;;11.38;2.30;;;;;;;10.16;91.43;100411.03;1701675;84;21011;-53
2021/09/21 02:53:32;;;;;;;7.30;1.67;;;;;;;10.16;91.62;100403.27;1710854;83;21425;-53
2021/09/21 02:55:58;;;;;;;17.48;2.00;;;;;;;10.13;91.46;100414.55;1701663;84;21544;-53
2021/09/21 02:58:26;;;;;;;40.40;2.35;;;;;;;10.13;91.33;100413.68;1711028;83;21194;-54
2021/09/21 03:00:56;;;;;;;3.17;1.15;;;;;;;10.14;90.86;100417.55;1701290;84;20992;-54
2021/09/21 03:03:26;;;;;;;10.80;1.37;;;;;;;10.11;89.87;100411.56;1711103;83;20956;-55
2021/09/21 03:06:06;;;;;;;8.90;1.20;;;;;;;10.08;89.20;100418.92;1701242;84;21003;-53
2021/09/21 03:08:31;;;;;;;15.40;1.77;;;;;;;10.06;88.96;100415.09;1709796;83;20947;-52
2021/09/21 03:11:18;;;;;;;11.55;1.30;;;;;;;10.06;88.69;100421.55;1701248;84;21398;-54
2021/09/21 03:19:12;;;;;;;13.80;2.15;;;;;;;10.01;88.74;100427.67;1701460;84;20130;-56
2021/09/21 03:21:38;;;;;;;20.15;1.98;;;;;;;9.98;88.91;100426.44;1672612;83;21354;-52
2021/09/21 03:24:05;;;;;;;11.45;1.60;;;;;;;9.98;89.16;100429.89;1705458;83;21977;-53
2021/09/21 03:26:32;;;;;;;13.10;1.87;;;;;;;9.95;89.46;100432.50;1716837;83;21002;-54
2021/09/21 03:28:58;;;;;;;6.67;1.25;;;;;;;9.92;89.62;100427.37;1721475;82;20970;-53
2021/09/21 03:31:26;;;;;;;50.15;4.10;;;;;;;9.89;89.58;100424.84;1692644;84;21481;-53
2021/09/21 03:33:53;;;;;;;26.35;2.25;;;;;;;9.89;89.71;100433.89;1692896;84;21002;-55
2021/09/21 03:36:20;;;;;;;14.13;1.52;;;;;;;9.85;89.74;100427.07;1692607;84;21594;-53
2021/09/21 03:38:46;;;;;;;16.57;1.90;;;;;;;9.79;89.53;100433.18;1687026;85;20911;-55
2021/09/21 03:41:14;;;;;;;33.90;2.37;;;;;;;9.76;89.24;100432.81;1692623;84;20920;-55
2021/09/21 03:43:41;;;;;;;11.65;1.30;;;;;;;9.75;89.20;100435.41;1692478;84;20951;-54
2021/09/21 03:46:07;;;;;;;8.63;1.32;;;;;;;9.73;89.07;100434.58;1721720;83;20955;-53
2021/09/21 03:48:34;;;;;;;42.62;3.98;;;;;;;9.70;88.99;100438.05;1692597;83;21041;-51
2021/09/21 03:51:00;;;;;;;16.70;1.85;;;;;;;9.70;89.26;100443.22;1692535;83;21073;-55
2021/09/21 03:53:27;;;;;;;36.17;3.33;;;;;;;9.71;89.25;100442.80;1692734;84;20994;-54
2021/09/21 03:55:55;;;;;;;34.25;2.00;;;;;;;9.70;89.55;100444.97;1687061;85;20923;-56
2021/09/21 03:58:21;;;;;;;21.85;2.00;;;;;;;9.70;89.68;100447.09;1692718;84;20971;-53
2021/09/21 04:00:48;;;;;;;7.03;1.00;;;;;;;9.71;89.91;100447.51;1692550;83;21052;-54
2021/09/21 04:03:15;;;;;;;21.68;2.45;;;;;;;9.72;90.22;100445.34;1721600;83;21513;-53
2021/09/21 04:05:42;;;;;;;14.20;2.15;;;;;;;9.72;90.31;100441.92;1692790;84;20987;-54
2021/09/21 04:08:09;;;;;;;11.90;1.40;;;;;;;9.69;90.31;100445.84;1692852;84;21602;-54
2021/09/21 04:10:36;;;;;;;18.65;2.05;;;;;;;9.68;90.36;100436.38;1692719;84;21477;-52
2021/09/21 04:13:03;;;;;;;28.30;2.83;;;;;;;9.64;90.33;100442.02;1692742;84;21765;-55
2021/09/21 04:15:30;;;;;;;27.98;2.60;;;;;;;9.63;90.69;100439.03;1692620;84;21010;-53
2021/09/21 04:17:57;;;;;;;19.00;2.65;;;;;;;9.60;90.74;100440.36;1692551;84;21936;-54
2021/09/21 04:20:24;;;;;;;27.87;2.87;;;;;;;9.59;90.86;100446.41;1661150;83;21508;-54
2021/09/21 04:22:50;;;;;;;23.25;2.42;;;;;;;9.59;90.83;100451.58;1703088;84;21071;-54
2021/09/21 04:25:17;;;;;;;23.62;2.90;;;;;;;9.57;91.26;100440.41;1721639;83;21152;-53
2021/09/21 04:27:46;;;;;;;23.38;2.80;;;;;;;9.59;91.32;100442.53;1692545;83;21488;-55
2021/09/21 04:30:20;;;;;;;26.75;2.72;;;;;;;9.57;91.02;100447.72;1692529;84;20966;-52
2021/09/21 04:32:43;;;;;;;3.75;1.37;;;;;;;9.57;90.90;100450.75;1690474;84;20951;-55
2021/09/21 04:35:10;;;;;;;3.83;1.02;;;;;;;9.56;90.81;100448.59;1721481;83;20967;-53
2021/09/21 04:37:38;;;;;;;1.50;1.22;;;;;;;9.54;91.03;100445.62;1692568;84;21022;-53
2021/09/21 04:40:06;;;;;;;1.57;1.00;;;;;;;9.51;91.04;100453.43;1692626;84;20927;-54
2021/09/21 04:42:34;;;;;;;5.85;1.27;;;;;;;9.51;91.18;100440.05;1692547;84;20939;-56
2021/09/21 04:45:01;;;;;;;1.10;1.10;;;;;;;9.51;91.17;100450.84;1692658;84;21714;-53
2021/09/21 04:47:27;;;;;;;5.83;1.32;;;;;;;9.44;91.45;100448.33;1692545;84;21596;-52
2021/09/21 04:49:54;;;;;;;2.77;1.95;;;;;;;9.46;91.63;100440.56;1692578;84;21187;-51
2021/09/21 04:52:21;;;;;;;2.17;1.50;;;;;;;9.46;91.81;100442.70;1692583;84;20959;-54
2021/09/21 04:54:48;;;;;;;2.40;1.40;;;;;;;9.48;91.90;100438.39;1692485;83;21018;-53
2021/09/21 04:57:14;;;;;;;2.05;1.90;;;;;;;9.50;92.10;100443.52;1692527;84;21010;-55
2021/09/21 04:59:41;;;;;;;3.83;1.40;;;;;;;9.53;92.09;100449.09;1692519;84;21010;-55
2021/09/21 05:02:07;;;;;;;2.83;1.02;;;;;;;9.59;92.21;100450.29;1692466;83;21150;-54
2021/09/21 05:04:34;;;;;;;1.57;1.47;;;;;;;9.64;92.44;100457.53;1692414;84;20995;-52
2021/09/21 05:07:00;;;;;;;1.62;1.52;;;;;;;9.69;92.28;100462.64;1692610;84;20963;-53
2021/09/21 05:09:27;;;;;;;3.22;1.60;;;;;;;9.72;92.12;100464.72;1692683;84;20907;-52
2021/09/21 05:11:55;;;;;;;4.42;1.72;;;;;;;9.74;92.08;100456.96;1687317;84;20918;-54
2021/09/21 05:14:22;;;;;;;7.72;1.60;;;;;;;9.77;92.46;100462.08;1703114;83;21067;-53
2021/09/21 05:16:50;;;;;;;1.65;1.12;;;;;;;9.78;92.63;100458.63;1703203;84;20967;-53
2021/09/21 05:19:16;;;;;;;1.95;1.50;;;;;;;9.81;93.07;100460.31;1721656;83;20939;-53
2021/09/21 05:21:44;;;;;;;1.57;1.25;;;;;;;9.79;93.48;100456.45;1692696;84;20983;-55
2021/09/21 05:24:12;;;;;;;4.33;1.70;;;;;;;9.74;93.91;100455.25;1721602;83;21544;-54
2021/09/21 05:26:40;;;;;;;1.67;1.57;;;;;;;9.61;94.35;100458.88;1741359;82;21442;-52
2021/09/21 05:29:07;;;;;;;1.70;1.60;;;;;;;9.50;95.44;100462.90;1741412;82;20884;-53
2021/09/21 05:31:34;;;;;;;2.33;1.65;;;;;;;9.40;96.17;100462.16;1711965;82;21508;-53
2021/09/21 05:34:01;;;;;;;12.07;1.62;;;;;;;9.36;97.08;100463.09;1741612;82;20999;-53
2021/09/21 05:36:27;;;;;;;2.47;1.40;;;;;;;9.31;97.74;100461.01;1741609;82;21461;-53
2021/09/21 05:38:54;;;;;;;1.52;1.42;;;;;;;9.27;98.21;100456.77;1741706;81;21756;-55
2021/09/21 05:41:20;;;;;;;1.47;0.70;;;;;;;9.20;98.86;100458.11;1741425;82;21011;-54
2021/09/21 05:43:48;;;;;;;1.65;0.60;;;;;;;9.14;99.07;100462.06;1741323;82;20987;-55
2021/09/21 05:46:14;;;;;;;1.17;0.28;;;;;;;8.97;97.96;100460.11;1741423;82;20979;-54
2021/09/21 05:48:41;;;;;;;0.98;0.40;;;;;;;8.81;98.10;100464.59;1741532;82;20892;-53
2021/09/21 05:51:08;;;;;;;1.00;0.35;;;;;;;8.69;98.42;100466.45;1741466;82;21080;-56
2021/09/21 05:53:35;;;;;;;1.70;1.00;;;;;;;8.60;98.96;100466.11;1741473;81;21529;-54
2021/09/21 05:56:01;;;;;;;3.40;0.82;;;;;;;8.56;99.27;100463.14;1741545;81;21529;-55
2021/09/21 05:58:28;;;;;;;5.78;0.90;;;;;;;8.53;99.54;100468.34;1712441;82;20885;-50
2021/09/21 06:00:57;;;;;;;2.05;0.70;;;;;;;8.51;99.69;100480.40;1741420;82;20955;-54
2021/09/21 06:03:25;;;;;;;0.65;0.35;;;;;;;8.48;99.75;100478.66;1741526;82;21800;-53
2021/09/21 06:05:52;;;;;;;1.47;0.68;;;;;;;8.43;99.87;100478.27;1741353;82;20981;-53
2021/09/21 06:08:20;;;;;;;0.53;0.53;;;;;;;8.41;100.00;100485.17;1741445;82;20987;-51
2021/09/21 06:10:47;;;;;;;1.42;0.42;;;;;;;8.37;100.00;100486.08;1741474;82;20971;-55
2021/09/21 06:13:15;;;;;;;1.22;0.25;;;;;;;8.33;100.00;100493.84;1741180;82;20971;-55
2021/09/21 06:15:43;;;;;;;1.37;0.25;;;;;;;8.34;100.00;100493.42;1741394;82;21127;-53
2021/09/21 06:18:11;;;;;;;1.25;0.40;;;;;;;8.39;100.00;100498.52;1741271;82;20888;-54
2021/09/21 06:20:39;;;;;;;0.20;0.20;;;;;;;8.38;100.00;100501.55;1741630;81;20900;-52
2021/09/21 06:23:09;;;;;;;3.00;0.60;;;;;;;8.39;100.00;100507.55;1741321;82;21510;-53
2021/09/21 06:25:35;;;;;;;2.50;0.47;;;;;;;8.41;100.00;100509.68;1720081;81;21441;-54
2021/09/21 06:28:02;;;;;;;1.60;1.50;;;;;;;8.42;100.00;100512.68;1757572;81;21263;-51
2021/09/21 06:30:28;;;;;;;4.65;1.65;;;;;;;8.45;100.00;100513.52;1757627;81;20947;-54
2021/09/21 06:32:55;;;;;;;1.60;1.50;;;;;;;8.41;100.00;100516.13;1757162;81;20916;-55
2021/09/21 06:35:22;;;;;;;1.50;1.50;;;;;;;8.43;100.00;100515.26;1757547;81;20928;-50
2021/09/21 06:37:48;;;;;;;1.27;1.27;;;;;;;8.44;100.00;100522.13;1757933;81;20884;-51
2021/09/21 06:40:15;;;;;;;1.10;1.10;;;;;;;8.45;100.00;100530.70;1757445;81;21104;-52
2021/09/21 06:42:42;;;;;;;1.15;1.12;;;;;;;8.46;100.00;100537.58;1757387;81;21546;-51
2021/09/21 06:45:13;;;;;;;1.10;1.10;;;;;;;8.31;100.00;100547.16;1757396;81;20972;-55
2021/09/21 06:47:41;;;;;;;0.90;0.90;;;;;;;8.08;100.00;100551.63;1729718;81;20987;-55
2021/09/21 06:50:09;;;;;;;1.00;1.00;;;;;;;7.92;100.00;100553.00;1757556;80;20963;-53
2021/09/21 06:52:35;;;;;;;2.83;1.17;;;;;;;7.86;100.00;100560.36;1729835;81;23229;-55
2021/09/21 06:55:07;;;;;;;1.75;1.67;;;;;;;7.84;100.00;100561.22;1757531;81;20916;-53
2021/09/21 06:57:34;;;;;;;6.58;1.50;;;;;;;7.80;100.00;100561.66;1757832;80;20928;-50
2021/09/21 07:00:00;;;;;;;2.17;1.40;;;;;;;7.83;100.00;100564.24;1757576;81;21426;-54
2021/09/21 07:02:27;;;;;;;1.45;1.35;;;;;;;7.90;100.00;100563.34;1757395;81;20884;-55
2021/09/21 07:04:53;;;;;;;1.45;1.45;;;;;;;7.98;100.00;100566.30;1757673;81;21775;-52
2021/09/21 07:07:21;;;;;;;2.17;2.08;;;;;;;7.95;100.00;100568.89;1757589;81;21101;-53
2021/09/21 07:09:48;;;;;;;2.17;1.87;;;;;;;7.99;100.00;100570.16;1757631;81;20912;-53
2021/09/21 07:12:14;;;;;;;2.30;2.20;;;;;;;7.98;100.00;100578.77;1757760;81;20932;-51
2021/09/21 07:14:42;;;;;;;3.17;2.55;;;;;;;8.02;100.00;100577.88;1757717;81;21423;-52
2021/09/21 07:17:10;;;;;;;3.70;2.70;;;;;;;7.99;100.00;100583.05;1757652;81;21457;-50
2021/09/21 07:19:37;;;;;;;2.47;2.33;;;;;;;8.02;100.00;100583.03;1757533;81;21358;-52
2021/09/21 07:22:05;;;;;;;2.45;2.25;;;;;;;8.11;100.00;100573.10;1757592;81;21568;-55
2021/09/21 07:24:32;;;;;;;3.22;3.05;;;;;;;8.23;100.00;100573.88;1757857;81;21525;-55
2021/09/21 07:27:00;;;;;;;2.90;2.80;;;;;;;8.32;100.00;100571.22;1712624;82;21482;-50
2021/09/21 07:29:26;;;;;;;5.80;2.85;;;;;;;8.39;100.00;100573.33;1746005;82;21112;-53
2021/09/21 07:31:52;;;;;;;2.72;2.62;;;;;;;8.51;100.00;100568.54;1712170;82;20984;-54
2021/09/21 07:34:19;;;;;;;2.75;2.65;;;;;;;8.57;100.00;100572.34;1746090;82;20941;-53
2021/09/21 07:36:46;;;;;;;2.87;2.70;;;;;;;8.62;100.00;100565.00;1746385;80;21015;-55
2021/09/21 07:39:13;;;;;;;7.28;2.80;;;;;;;8.71;100.00;100565.78;1746128;82;21526;-52
2021/09/21 07:41:40;;;;;;;3.10;2.90;;;;;;;8.83;100.00;100570.84;1746375;82;21102;-52
2021/09/21 07:44:06;;;;;;;3.50;3.30;;;;;;;8.97;100.00;100573.71;1746025;82;20972;-52
2021/09/21 07:46:34;;;;;;;2.75;2.65;;;;;;;9.04;99.70;100572.35;1746005;82;20992;-55
2021/09/21 07:49:01;;;;;;;3.52;2.87;;;;;;;9.11;99.30;100573.60;1746124;81;20968;-53
2021/09/21 16:45:43;;;;;;;1.72;1.60;;;;;;;6.76;100.00;100772.97;1721707;80;22029;-55
2021/09/21 16:48:10;;;;;;;2.00;1.90;;;;;;;6.77;100.00;100781.12;1696420;84;21024;-55
2021/09/21 16:50:38;;;;;;;6.25;2.40;;;;;;;6.74;100.00;100781.12;1696382;84;21849;-55
2021/09/21 16:53:05;;;;;;;2.33;1.95;;;;;;;6.72;100.00;100781.10;1696309;84;20925;-52
2021/09/21 16:55:31;;;;;;;2.20;2.00;;;;;;;6.72;100.00;100780.26;1696603;84;21426;-53
2021/09/21 16:57:59;;;;;;;1.77;1.67;;;;;;;6.73;100.00;100787.13;1696408;84;20996;-52
2021/09/21 17:00:30;;;;;;;1.60;1.50;;;;;;;6.74;100.00;100785.83;1696397;84;21434;-55
2021/09/21 17:02:59;;;;;;;1.98;1.77;;;;;;;6.71;100.00;100788.84;1672469;84;21162;-53
2021/09/21 17:05:27;;;;;;;2.70;1.37;;;;;;;6.70;100.00;100781.53;1696551;84;21007;-53
2021/09/21 17:07:55;;;;;;;1.50;1.40;;;;;;;6.69;100.00;100783.67;1696499;84;20992;-55
2021/09/21 17:10:23;;;;;;;1.95;1.85;;;;;;;6.68;100.00;100786.23;1696587;84;21485;-52
2021/09/21 17:12:49;;;;;;;1.72;1.62;;;;;;;6.67;100.00;100781.94;1696551;84;20980;-52
2021/09/21 17:15:17;;;;;;;4.62;1.70;;;;;;;6.66;100.00;100784.95;1672355;84;22338;-55
2021/09/21 17:17:45;;;;;;;18.73;3.10;;;;;;;6.66;100.00;100779.81;1696434;84;21414;-53
2021/09/21 17:20:13;;;;;;;8.13;2.10;;;;;;;6.66;100.00;100781.09;1696390;84;21017;-53
2021/09/21 17:22:39;;;;;;;2.35;1.32;;;;;;;6.67;100.00;100785.80;1696603;84;22228;-54
2021/09/21 17:25:07;;;;;;;1.35;1.25;;;;;;;6.66;100.00;100782.37;1696347;84;21486;-55
2021/09/21 17:27:36;;;;;;;1.82;1.72;;;;;;;6.65;100.00;100783.23;1696121;84;21131;-54
2021/09/21 17:30:06;;;;;;;3.62;1.87;;;;;;;6.64;100.00;100775.09;1696305;84;20973;-53
2021/09/21 17:32:34;;;;;;;1.75;1.40;;;;;;;6.65;100.00;100773.36;1696697;84;20961;-53
2021/09/21 17:35:03;;;;;;;1.52;1.42;;;;;;;6.67;100.00;100778.08;1696114;84;20893;-52
2021/09/21 17:37:31;;;;;;;1.75;1.50;;;;;;;6.70;100.00;100775.09;1696393;84;21043;-53
2021/09/21 17:39:57;;;;;;;1.60;1.50;;;;;;;6.73;100.00;100778.12;1696538;84;21857;-55
2021/09/21 17:42:45;;;;;;;2.65;1.82;;;;;;;6.75;100.00;100783.68;1696637;84;21566;-50
2021/09/21 17:45:16;;;;;;;2.83;1.98;;;;;;;6.78;100.00;100782.84;1687966;83;21027;-54
2021/09/21 17:47:44;;;;;;;4.92;1.92;;;;;;;6.80;100.00;100786.27;1694277;83;21529;-52
2021/09/21 17:50:15;;;;;;;7.15;1.65;;;;;;;6.82;100.00;100780.70;1700383;84;21528;-53
2021/09/21 17:52:45;;;;;;;20.15;3.00;;;;;;;6.86;100.00;100784.16;1719137;83;21126;-51
2021/09/21 17:55:14;;;;;;;10.53;2.75;;;;;;;6.88;100.00;100781.99;1718996;83;20976;-54
2021/09/21 17:57:41;;;;;;;9.35;3.17;;;;;;;6.91;100.00;100783.73;1719131;83;21517;-51
2021/09/21 18:00:10;;;;;;;3.05;2.15;;;;;;;6.92;100.00;100781.58;1698362;83;21474;-53
2021/09/21 18:02:39;;;;;;;2.50;2.30;;;;;;;6.92;100.00;100780.30;1698454;84;20967;-52
2021/09/21 18:05:08;;;;;;;2.20;2.10;;;;;;;6.94;100.00;100782.44;1698483;84;21070;-54
2021/09/21 18:07:37;;;;;;;2.02;1.92;;;;;;;6.94;100.00;100776.01;1698489;84;20967;-50
2021/09/21 18:10:05;;;;;;;7.33;3.12;;;;;;;6.94;100.00;100782.44;1698573;84;21012;-53
2021/09/21 18:12:32;;;;;;;4.12;2.87;;;;;;;6.94;100.00;100786.30;1698247;84;21011;-52
2021/09/21 18:15:00;;;;;;;7.00;2.67;;;;;;;6.93;100.00;100779.85;1676249;84;21003;-53
2021/09/21 18:18:14;;;;;;;4.55;2.50;;;;;;;6.93;100.00;100775.98;1698418;84;21115;-51
2021/09/21 18:21:34;;;;;;;6.60;2.30;;;;;;;6.91;100.00;100770.86;1698724;84;20991;-56
2021/09/21 18:24:01;;;;;;;5.08;3.17;;;;;;;6.90;100.00;100776.42;1698640;84;20983;-50
2021/09/21 18:26:28;;;;;;;5.47;2.90;;;;;;;6.88;100.00;100771.70;1676542;84;21027;-51
2021/09/21 18:28:56;;;;;;;15.88;4.83;;;;;;;6.89;100.00;100772.58;1698473;84;21071;-52
2021/09/21 18:31:24;;;;;;;15.75;3.50;;;;;;;6.88;100.00;100774.27;1698576;84;22312;-52
2021/09/21 18:33:50;;;;;;;10.00;3.95;;;;;;;6.88;100.00;100773.43;1698685;84;21493;-54
2021/09/21 18:36:18;;;;;;;6.37;2.87;;;;;;;6.87;100.00;100773.00;1676391;84;21031;-51
2021/09/21 18:38:46;;;;;;;16.02;3.45;;;;;;;6.85;100.00;100775.56;1698369;84;20983;-54
2021/09/21 18:41:14;;;;;;;18.65;3.62;;;;;;;6.87;100.00;100773.84;1698550;84;21507;-53
2021/09/21 18:43:41;;;;;;;11.73;2.95;;;;;;;6.87;100.00;100767.41;1698448;84;21847;-52
2021/09/21 18:46:08;;;;;;;9.18;2.87;;;;;;;6.89;100.00;100757.12;1669761;85;21075;-54
2021/09/21 18:48:34;;;;;;;10.45;3.00;;;;;;;6.91;100.00;100757.98;1678794;84;21536;-55
2021/09/21 18:51:02;;;;;;;12.78;2.98;;;;;;;6.91;100.00;100757.98;1678815;84;21070;-51
2021/09/21 18:53:31;;;;;;;9.05;2.62;;;;;;;6.93;100.00;100756.28;1679228;84;21432;-54
2021/09/21 18:55:57;;;;;;;11.90;3.15;;;;;;;6.95;100.00;100758.42;1679688;85;21829;-51
2021/09/21 18:58:25;;;;;;;4.15;2.70;;;;;;;6.96;100.00;100752.86;1679158;84;21010;-53
2021/09/21 19:00:52;;;;;;;2.37;2.27;;;;;;;6.96;100.00;100751.58;1665420;84;21099;-51
2021/09/21 19:03:19;;;;;;;8.60;2.85;;;;;;;6.96;100.00;100758.01;1664962;84;20986;-52
2021/09/21 19:05:45;;;;;;;4.53;2.20;;;;;;;6.95;100.00;100755.01;1679232;84;20928;-52
2021/09/21 19:08:14;;;;;;;29.18;3.27;;;;;;;6.95;100.00;100761.44;1679192;84;20995;-54
2021/09/21 19:10:41;;;;;;;11.38;3.25;;;;;;;6.95;100.00;100764.02;1678907;84;20995;-53
2021/09/21 19:13:15;;;;;;;6.37;2.83;;;;;;;6.95;100.00;100757.13;1679144;84;21468;-53
2021/09/21 19:15:39;;;;;;;6.62;2.27;;;;;;;6.95;100.00;100755.01;1678863;84;20991;-54
2021/09/21 19:18:08;;;;;;;11.12;2.92;;;;;;;6.96;100.00;100756.72;1679162;84;20952;-53
2021/09/21 19:20:36;;;;;;;9.70;3.42;;;;;;;6.95;100.00;100758.86;1679171;84;20932;-54
2021/09/21 19:23:04;;;;;;;15.75;3.30;;;;;;;6.94;100.00;100751.97;1679136;84;21339;-52
2021/09/21 19:25:31;;;;;;;10.80;2.50;;;;;;;6.93;100.00;100762.71;1679241;85;20987;-51
2021/09/21 19:27:58;;;;;;;9.40;2.87;;;;;;;6.92;100.00;100754.97;1665388;85;21214;-54
2021/09/21 19:30:24;;;;;;;4.28;2.40;;;;;;;6.90;100.00;100754.55;1679555;84;20964;-52
2021/09/21 19:32:54;;;;;;;3.75;2.22;;;;;;;6.91;100.00;100752.84;1665167;84;21855;-53
2021/09/21 19:35:21;;;;;;;4.60;2.37;;;;;;;6.90;100.00;100757.12;1679259;85;21019;-54
2021/09/21 19:37:54;;;;;;;9.93;3.00;;;;;;;6.90;100.00;100755.83;1679316;85;20936;-54
2021/09/21 19:40:23;;;;;;;5.37;2.60;;;;;;;6.89;100.00;100760.99;1678765;85;21093;-54
2021/09/21 19:42:50;;;;;;;20.32;3.90;;;;;;;6.88;100.00;100765.27;1679381;84;21010;-53
2021/09/21 19:45:19;;;;;;;17.65;3.37;;;;;;;6.87;100.00;100762.27;1679338;84;21011;-53
2021/09/21 19:47:47;;;;;;;20.37;3.37;;;;;;;6.86;100.00;100764.85;1669470;84;21533;-54
2021/09/21 19:50:20;;;;;;;10.08;3.10;;;;;;;6.85;100.00;100765.71;1695545;83;20996;-54
2021/09/21 19:52:47;;;;;;;18.00;3.08;;;;;;;6.82;100.00;100765.27;1695518;84;21034;-54
2021/09/21 19:55:14;;;;;;;5.17;2.42;;;;;;;6.80;100.00;100764.41;1669519;84;21042;-52
2021/09/21 19:57:40;;;;;;;6.97;2.00;;;;;;;6.81;100.00;100765.24;1695348;84;21975;-54
2021/09/21 20:00:10;;;;;;;10.65;2.50;;;;;;;6.80;100.00;100763.53;1695267;84;21551;-52
2021/09/21 20:02:40;;;;;;;15.35;3.75;;;;;;;6.80;100.00;100754.52;1669754;84;20956;-54
2021/09/21 20:05:09;;;;;;;7.83;2.85;;;;;;;6.80;100.00;100760.55;1695459;84;20992;-54
2021/09/21 20:18:27;;;;;;;3.35;2.30;;;;;;;6.73;100.00;100753.23;1831679;76;22770;-52
2021/09/21 20:20:56;;;;;;;4.47;2.30;;;;;;;6.71;100.00;100761.82;1725944;81;21031;-52
2021/09/21 20:23:25;;;;;;;2.85;1.95;;;;;;;6.71;100.00;100764.39;1781092;79;21081;-52
2021/09/21 20:25:51;;;;;;;2.72;1.75;;;;;;;6.72;100.00;100757.95;1771608;79;20955;-52
2021/09/21 20:28:20;;;;;;;3.62;1.77;;;;;;;6.74;100.00;100755.39;1774537;79;21019;-52
2021/09/21 20:30:48;;;;;;;3.67;1.70;;;;;;;6.75;100.00;100759.23;1780602;79;20930;-52
2021/09/21 20:33:16;;;;;;;2.02;1.92;;;;;;;6.77;100.00;100757.97;1789270;79;20928;-52
2021/09/21 20:35:53;;;;;;;4.92;1.92;;;;;;;6.78;100.00;100758.39;1797893;79;21767;-52
2021/09/21 20:38:23;;;;;;;4.90;1.90;;;;;;;6.80;100.00;100760.95;1781076;79;20999;-52
2021/09/21 20:40:56;;;;;;;4.10;1.80;;;;;;;6.80;100.00;100767.39;1784936;79;21050;-53
2021/09/21 20:43:26;;;;;;;4.05;1.95;;;;;;;6.79;100.00;100769.13;1768926;79;21501;-52
2021/09/21 20:45:58;;;;;;;3.08;1.55;;;;;;;6.77;100.00;100764.40;1785307;79;20878;-52